createdAt,value
2023-05-02T00:01:57.146Z,2.75
2023-05-02T00:04:00.154Z,2.50
2023-05-02T00:06:03.150Z,2.80
2023-05-02T00:08:06.356Z,2.53
2023-05-02T00:10:10.104Z,2.65
2023-05-02T00:12:12.882Z,3.00
2023-05-02T00:14:17.039Z,2.55
2023-05-02T00:16:19.944Z,2.90
2023-05-02T00:18:24.114Z,2.90
2023-05-02T00:20:27.122Z,2.35
2023-05-02T00:22:30.020Z,2.67
2023-05-02T00:24:33.079Z,2.45
2023-05-02T00:26:35.871Z,2.55
2023-05-02T00:28:38.739Z,2.40
2023-05-02T00:30:45.303Z,2.60
2023-05-02T00:32:48.304Z,2.63
2023-05-02T00:34:51.126Z,2.67
2023-05-02T00:36:53.929Z,2.78
2023-05-02T00:38:56.931Z,2.42
2023-05-02T00:40:59.735Z,2.63
2023-05-02T00:43:02.667Z,3.20
2023-05-02T00:45:06.865Z,2.25
2023-05-02T00:49:14.287Z,2.13
2023-05-02T00:51:17.104Z,2.25
2023-05-02T00:53:20.101Z,2.28
2023-05-02T00:55:23.632Z,2.75
2023-05-02T00:57:26.738Z,2.17
2023-05-02T00:59:29.603Z,2.45
2023-05-02T01:01:42.595Z,2.30
2023-05-02T01:04:04.745Z,2.47
2023-05-02T01:06:20.469Z,2.17
2023-05-02T01:08:35.436Z,2.63
2023-05-02T01:12:59.387Z,2.20
2023-05-02T01:15:06.922Z,2.35
2023-05-02T01:17:13.854Z,2.60
2023-05-02T01:19:26.749Z,2.40
2023-05-02T01:21:29.911Z,2.67
2023-05-02T01:23:42.000Z,2.60
2023-05-02T01:26:00.140Z,2.60
2023-05-02T01:28:17.799Z,2.42
2023-05-02T01:30:23.481Z,2.72
2023-05-02T01:32:28.142Z,2.58
2023-05-02T01:36:37.486Z,2.60
2023-05-02T01:38:43.537Z,2.80
2023-05-02T01:40:48.599Z,2.42
2023-05-02T01:42:55.270Z,2.67
2023-05-02T01:45:00.871Z,2.75
2023-05-02T01:47:08.613Z,2.78
2023-05-02T01:49:11.764Z,2.83
2023-05-02T01:51:18.831Z,2.60
2023-05-02T01:53:22.549Z,3.03
2023-05-02T01:55:26.801Z,3.50
2023-05-02T01:57:29.986Z,2.88
2023-05-02T01:59:35.264Z,3.03
2023-05-02T02:01:39.724Z,3.40
2023-05-02T02:03:44.865Z,3.65
2023-05-02T02:05:50.924Z,2.75
2023-05-02T02:07:53.910Z,2.90
2023-05-02T02:09:56.840Z,3.13
2023-05-02T02:12:06.437Z,3.42
2023-05-02T02:14:16.062Z,3.05
2023-05-02T02:16:25.592Z,3.53
2023-05-02T02:18:30.306Z,2.92
2023-05-02T02:22:40.858Z,3.55
2023-05-02T02:24:46.836Z,3.97
2023-05-02T02:26:49.734Z,4.05
2023-05-02T02:28:52.587Z,3.60
2023-05-02T02:30:56.797Z,3.50
2023-05-02T02:32:59.660Z,3.63
2023-05-02T02:35:03.270Z,3.90
2023-05-02T02:37:12.775Z,3.75
2023-05-02T02:39:26.500Z,3.47
2023-05-02T02:41:34.081Z,3.75
2023-05-02T02:43:45.144Z,3.67
2023-05-02T02:45:56.799Z,3.78
2023-05-02T02:48:08.212Z,3.45
2023-05-02T02:50:17.907Z,4.30
2023-05-02T02:52:33.100Z,4.15
2023-05-02T02:56:46.754Z,4.82
2023-05-02T02:58:56.242Z,4.40
2023-05-02T03:01:03.892Z,4.28
2023-05-02T03:03:08.632Z,4.63
2023-05-02T03:07:15.200Z,5.45
2023-05-02T03:09:19.820Z,4.88
2023-05-02T03:11:24.917Z,4.82
2023-05-02T03:13:27.810Z,4.55
2023-05-02T03:16:01.775Z,4.18
2023-05-02T03:18:06.383Z,5.63
2023-05-02T03:20:10.396Z,5.00
2023-05-02T03:22:13.214Z,4.82
2023-05-02T03:24:18.910Z,6.78
2023-05-02T03:26:23.392Z,6.50
2023-05-02T03:28:26.719Z,6.30
2023-05-02T03:30:29.947Z,6.50
2023-05-02T03:32:33.079Z,6.78
2023-05-02T03:34:35.979Z,6.30
2023-05-02T03:36:38.757Z,7.05
2023-05-02T03:38:41.594Z,7.60
2023-05-02T03:40:48.219Z,6.68
2023-05-02T03:42:52.459Z,7.00
2023-05-02T03:45:01.876Z,5.82
2023-05-02T03:47:04.895Z,7.10
2023-05-02T03:49:13.724Z,6.22
2023-05-02T03:51:19.428Z,6.57
2023-05-02T03:53:26.696Z,7.88
2023-05-02T03:55:33.403Z,6.97
2023-05-02T03:57:36.699Z,7.18
2023-05-02T03:59:42.972Z,8.63
2023-05-02T04:01:54.075Z,7.88
2023-05-02T04:04:03.002Z,8.40
2023-05-02T04:06:10.710Z,9.25
2023-05-02T04:08:13.706Z,10.55
2023-05-02T04:10:18.161Z,11.07
2023-05-02T04:12:27.867Z,9.82
2023-05-02T04:14:30.794Z,9.85
2023-05-02T04:16:35.301Z,11.18
2023-05-02T04:18:38.211Z,11.30
2023-05-02T04:20:44.125Z,9.73
2023-05-02T04:22:50.092Z,8.77
2023-05-02T04:24:53.168Z,12.75
2023-05-02T04:26:56.088Z,10.25
2023-05-02T04:28:58.940Z,10.68
2023-05-02T04:31:03.232Z,12.50
2023-05-02T04:33:09.692Z,13.70
2023-05-02T04:35:15.356Z,12.98
2023-05-02T04:37:18.463Z,14.10
2023-05-02T04:39:22.629Z,15.27
2023-05-02T04:41:38.777Z,13.80
2023-05-02T04:43:43.251Z,13.55
2023-05-02T04:45:46.305Z,13.50
2023-05-02T04:47:56.760Z,14.63
2023-05-02T04:50:01.156Z,13.50
2023-05-02T04:52:04.996Z,14.88
2023-05-02T04:54:09.052Z,14.73
2023-05-02T04:56:12.277Z,16.25
2023-05-02T04:58:15.530Z,13.93
2023-05-02T05:00:20.344Z,14.95
2023-05-02T05:02:23.190Z,17.40
2023-05-02T05:04:26.559Z,16.50
2023-05-02T05:06:32.018Z,17.70
2023-05-02T05:08:35.421Z,18.23
2023-05-02T05:10:40.400Z,19.15
2023-05-02T05:12:44.264Z,18.13
2023-05-02T05:14:47.681Z,20.65
2023-05-02T05:16:50.654Z,19.98
2023-05-02T05:18:53.903Z,17.88
2023-05-02T05:20:56.782Z,19.60
2023-05-02T05:23:01.096Z,21.20
2023-05-02T05:25:04.008Z,20.27
2023-05-02T05:27:08.089Z,18.05
2023-05-02T05:29:11.610Z,20.50
2023-05-02T05:31:17.437Z,23.50
2023-05-02T05:33:24.129Z,23.42
2023-05-02T05:35:27.484Z,22.85
2023-05-02T05:37:31.355Z,23.50
2023-05-02T05:39:37.914Z,24.67
2023-05-02T05:41:41.679Z,23.67
2023-05-02T05:43:46.616Z,28.05
2023-05-02T05:45:49.691Z,29.98
2023-05-02T05:47:54.878Z,32.92
2023-05-02T05:49:59.506Z,28.05
2023-05-02T05:52:05.719Z,32.20
2023-05-02T05:54:09.100Z,30.88
2023-05-02T05:56:14.735Z,32.35
2023-05-02T05:58:23.828Z,35.90
2023-05-02T06:02:31.344Z,31.52
2023-05-02T06:04:34.558Z,35.65
2023-05-02T06:06:37.780Z,34.60
2023-05-02T06:08:40.668Z,33.65
2023-05-02T06:10:43.499Z,33.83
2023-05-02T06:12:49.159Z,37.90
2023-05-02T06:14:54.396Z,32.67
2023-05-02T06:17:00.066Z,41.65
2023-05-02T06:19:03.785Z,36.50
2023-05-02T06:21:07.124Z,41.25
2023-05-02T06:23:09.994Z,40.45
2023-05-02T06:25:12.921Z,47.35
2023-05-02T06:27:16.451Z,43.15
2023-05-02T06:29:20.640Z,43.90
2023-05-02T06:31:23.506Z,46.92
2023-05-02T06:33:26.302Z,49.35
2023-05-02T06:35:29.213Z,47.72
2023-05-02T06:37:35.432Z,45.13
2023-05-02T06:39:38.460Z,43.78
2023-05-02T06:41:41.716Z,46.85
2023-05-02T06:43:49.743Z,53.67
2023-05-02T06:45:56.324Z,50.33
2023-05-02T06:47:59.297Z,43.67
2023-05-02T06:50:02.367Z,48.70
2023-05-02T06:52:05.572Z,49.50
2023-05-02T06:54:08.713Z,41.05
2023-05-02T06:56:12.827Z,55.97
2023-05-02T06:58:15.962Z,50.72
2023-05-02T07:00:20.048Z,52.20
2023-05-02T07:02:24.375Z,49.58
2023-05-02T07:04:27.370Z,51.00
2023-05-02T07:06:31.084Z,51.50
2023-05-02T07:08:33.876Z,51.90
2023-05-02T07:10:36.733Z,55.25
2023-05-02T07:12:40.446Z,51.95
2023-05-02T07:14:43.285Z,50.27
2023-05-02T07:16:46.118Z,49.47
2023-05-02T07:18:50.338Z,44.08
2023-05-02T07:20:53.116Z,47.40
2023-05-02T07:22:56.222Z,43.65
2023-05-02T07:24:59.571Z,45.13
2023-05-02T07:27:03.282Z,42.50
2023-05-02T07:29:06.839Z,43.50
2023-05-02T07:31:09.680Z,45.97
2023-05-02T07:33:12.521Z,44.17
2023-05-02T07:35:17.008Z,44.08
2023-05-02T07:37:19.757Z,40.42
2023-05-02T07:39:22.974Z,45.85
2023-05-02T07:41:25.814Z,37.72
2023-05-02T07:43:29.367Z,43.33
2023-05-02T07:45:32.850Z,43.80
2023-05-02T07:47:36.088Z,38.33
2023-05-02T07:49:38.905Z,38.85
2023-05-02T07:51:45.745Z,37.10
2023-05-02T07:53:51.869Z,41.30
2023-05-02T07:55:54.673Z,41.38
2023-05-02T07:57:57.584Z,36.85
2023-05-02T08:00:00.595Z,40.55
2023-05-02T08:02:03.693Z,38.63
2023-05-02T08:04:06.678Z,35.10
2023-05-02T08:06:10.082Z,38.17
2023-05-02T08:08:14.299Z,37.45
2023-05-02T08:10:17.147Z,39.55
2023-05-02T08:12:19.900Z,39.95
2023-05-02T08:14:22.908Z,40.72
2023-05-02T08:16:25.843Z,42.38
2023-05-02T08:18:37.892Z,37.53
2023-05-02T08:20:40.768Z,41.45
2023-05-02T08:22:43.578Z,37.40
2023-05-02T08:24:47.665Z,34.63
2023-05-02T08:26:50.824Z,30.95
2023-05-02T08:28:54.105Z,36.90
2023-05-02T08:30:57.455Z,35.83
2023-05-02T08:33:00.300Z,37.92
2023-05-02T08:35:03.538Z,36.55
2023-05-02T08:37:09.293Z,34.28
2023-05-02T08:39:12.149Z,38.13
2023-05-02T08:41:17.884Z,37.92
2023-05-02T08:43:21.305Z,41.00
2023-05-02T08:45:24.797Z,40.28
2023-05-02T08:47:30.720Z,39.03
2023-05-02T08:49:33.803Z,38.63
2023-05-02T08:51:39.433Z,37.97
2023-05-02T08:53:45.086Z,39.72
2023-05-02T08:55:49.271Z,33.80
2023-05-02T08:57:55.145Z,33.60
2023-05-02T08:59:58.122Z,34.20
2023-05-02T09:02:12.996Z,34.35
2023-05-02T09:04:16.356Z,32.28
2023-05-02T09:06:20.700Z,29.52
2023-05-02T09:08:24.632Z,27.98
2023-05-02T09:10:29.843Z,32.17
2023-05-02T09:12:32.676Z,33.22
2023-05-02T09:14:36.821Z,32.30
2023-05-02T09:16:40.854Z,34.28
2023-05-02T09:18:45.966Z,33.10
2023-05-02T09:20:48.904Z,34.35
2023-05-02T09:22:53.469Z,32.40
2023-05-02T09:27:01.042Z,31.48
2023-05-02T09:29:05.670Z,30.15
2023-05-02T09:31:11.117Z,29.63
2023-05-02T09:33:27.354Z,26.85
2023-05-02T09:35:30.185Z,29.13
2023-05-02T09:37:37.121Z,34.78
2023-05-02T09:39:39.936Z,30.88
2023-05-02T09:41:43.693Z,28.90
2023-05-02T09:43:56.932Z,31.35
2023-05-02T09:46:01.708Z,33.38
2023-05-02T09:48:06.326Z,33.47
2023-05-02T09:52:13.646Z,31.02
2023-05-02T09:54:37.121Z,30.75
2023-05-02T09:56:56.433Z,30.90
2023-05-02T09:59:15.704Z,32.75
2023-05-02T10:01:19.431Z,28.25
2023-05-02T10:03:25.228Z,30.42
2023-05-02T10:05:28.882Z,28.40
2023-05-02T10:07:31.816Z,28.58
2023-05-02T10:09:37.551Z,27.95
2023-05-02T10:11:42.996Z,27.95
2023-05-02T10:13:47.223Z,28.77
2023-05-02T10:15:55.408Z,26.25
2023-05-02T10:18:00.231Z,27.33
2023-05-02T10:20:06.886Z,25.77
2023-05-02T10:22:09.948Z,27.92
2023-05-02T10:24:14.063Z,28.25
2023-05-02T10:26:17.818Z,26.17
2023-05-02T10:28:21.456Z,23.03
2023-05-02T10:30:24.923Z,23.05
2023-05-02T10:32:29.405Z,23.58
2023-05-02T10:36:38.072Z,19.27
2023-05-02T10:38:41.844Z,21.33
2023-05-02T10:40:55.719Z,21.83
2023-05-02T10:43:01.102Z,17.65
2023-05-02T10:45:04.561Z,20.08
2023-05-02T10:47:21.402Z,18.38
2023-05-02T10:49:27.167Z,17.25
2023-05-02T10:51:31.304Z,15.48
2023-05-02T10:53:37.366Z,14.00
2023-05-02T10:55:41.310Z,14.98
2023-05-02T10:58:21.926Z,12.13
2023-05-02T11:00:26.117Z,14.85
2023-05-02T11:02:48.241Z,16.85
2023-05-02T11:05:02.881Z,17.50
2023-05-02T11:09:37.859Z,15.18
2023-05-02T11:11:42.427Z,15.50
2023-05-02T11:13:51.585Z,15.80
2023-05-02T11:15:57.979Z,14.45
2023-05-02T11:18:01.920Z,14.73
2023-05-02T11:20:26.435Z,15.18
2023-05-02T11:22:32.850Z,13.48
2023-05-02T11:24:40.760Z,14.13
2023-05-02T11:26:43.624Z,12.15
2023-05-02T11:28:48.159Z,13.57
2023-05-02T11:30:51.707Z,12.82
2023-05-02T11:33:16.084Z,11.13
2023-05-02T11:35:20.251Z,10.30
2023-05-02T11:37:23.127Z,10.48
2023-05-02T11:39:26.082Z,12.68
2023-05-02T11:41:41.490Z,13.00
2023-05-02T11:43:44.308Z,10.43
2023-05-02T11:45:47.165Z,11.52
2023-05-02T11:47:51.924Z,10.73
2023-05-02T11:49:56.287Z,10.32
2023-05-02T11:52:00.169Z,11.45
2023-05-02T11:54:03.343Z,11.07
2023-05-02T11:56:07.439Z,9.40
2023-05-02T11:58:16.083Z,12.10
2023-05-02T12:00:19.593Z,10.73
2023-05-02T12:02:37.064Z,10.07
2023-05-02T12:04:43.773Z,10.02
2023-05-02T12:06:56.404Z,8.40
2023-05-02T12:09:17.198Z,8.57
2023-05-02T12:11:20.080Z,7.45
2023-05-02T12:13:26.186Z,6.65
2023-05-02T12:15:29.087Z,8.65
2023-05-02T12:17:32.565Z,8.23
2023-05-02T12:19:37.139Z,8.80
2023-05-02T12:21:39.966Z,8.02
2023-05-02T12:23:43.111Z,7.53
2023-05-02T12:25:46.092Z,8.00
2023-05-02T12:28:02.237Z,8.43
2023-05-02T12:30:08.692Z,8.32
2023-05-02T12:32:11.806Z,8.45
2023-05-02T12:34:14.718Z,7.85
2023-05-02T12:36:18.390Z,7.82
2023-05-02T12:38:22.710Z,8.53
2023-05-02T12:40:26.064Z,7.60
2023-05-02T12:42:28.847Z,8.02
2023-05-02T12:44:38.633Z,8.32
2023-05-02T12:47:01.304Z,7.60
2023-05-02T12:49:05.765Z,7.85
2023-05-02T12:51:22.421Z,8.98
2023-05-02T12:53:41.626Z,8.75
2023-05-02T12:55:44.503Z,8.63
2023-05-02T12:57:47.897Z,10.65
2023-05-02T12:59:53.134Z,11.30
2023-05-02T13:01:55.966Z,10.88
2023-05-02T13:04:00.207Z,10.60
2023-05-02T13:06:03.270Z,9.30
2023-05-02T13:08:07.126Z,10.18
2023-05-02T13:10:11.201Z,10.02
2023-05-02T13:12:14.054Z,9.15
2023-05-02T13:14:16.911Z,8.70
2023-05-02T13:16:19.767Z,9.25
2023-05-02T13:18:22.888Z,8.95
2023-05-02T13:20:27.095Z,9.00
2023-05-02T13:22:30.184Z,8.07
2023-05-02T13:24:32.946Z,9.23
2023-05-02T13:26:35.744Z,7.13
2023-05-02T13:28:38.608Z,8.23
2023-05-02T13:30:41.681Z,6.10
2023-05-02T13:32:44.568Z,6.35
2023-05-02T13:34:47.455Z,6.40
2023-05-02T13:36:52.000Z,6.65
2023-05-02T13:38:55.399Z,6.00
2023-05-02T13:40:58.206Z,5.90
2023-05-02T13:43:00.952Z,5.35
2023-05-02T13:45:05.193Z,4.68
2023-05-02T13:47:08.063Z,6.22
2023-05-02T13:49:11.045Z,5.22
2023-05-02T13:51:13.904Z,4.45
2023-05-02T13:53:18.076Z,4.95
2023-05-02T13:55:21.162Z,5.45
2023-05-02T13:57:23.972Z,5.32
2023-05-02T13:59:26.850Z,5.75
2023-05-02T14:01:29.791Z,5.65
2023-05-02T14:03:32.649Z,5.22
2023-05-02T14:05:36.547Z,6.25
2023-05-02T14:07:39.352Z,6.60
2023-05-02T14:09:43.446Z,6.68
2023-05-02T14:11:47.196Z,5.72
2023-05-02T14:13:50.075Z,5.50
2023-05-02T14:15:53.800Z,6.10
2023-05-02T14:17:56.670Z,5.93
2023-05-02T14:19:59.687Z,5.70
2023-05-02T14:22:02.726Z,6.25
2023-05-02T14:24:06.370Z,5.82
2023-05-02T14:26:10.578Z,5.73
2023-05-02T14:28:13.429Z,5.38
2023-05-02T14:30:16.512Z,5.30
2023-05-02T14:32:19.294Z,5.15
2023-05-02T14:34:22.224Z,6.15
2023-05-02T14:36:24.982Z,5.88
2023-05-02T14:38:27.731Z,6.38
2023-05-02T14:40:30.661Z,6.45
2023-05-02T14:42:34.752Z,5.05
2023-05-02T14:44:37.548Z,5.07
2023-05-02T14:46:40.689Z,5.70
2023-05-02T14:48:43.476Z,4.78
2023-05-02T14:50:46.274Z,4.90
2023-05-02T14:52:49.110Z,5.93
2023-05-02T14:54:51.954Z,5.47
2023-05-02T14:56:54.777Z,5.40
2023-05-02T14:58:58.947Z,5.03
2023-05-02T15:01:01.769Z,6.10
2023-05-02T15:03:07.446Z,4.50
2023-05-02T15:05:12.580Z,2.80
2023-05-02T15:07:16.343Z,3.38
2023-05-02T15:09:19.425Z,2.78
2023-05-02T15:11:22.261Z,2.30
2023-05-02T15:13:25.098Z,2.38
2023-05-02T15:15:29.786Z,2.08
2023-05-02T15:17:32.573Z,2.22
2023-05-02T15:19:35.506Z,2.95
2023-05-02T15:21:38.497Z,2.15
2023-05-02T15:23:41.282Z,2.38
2023-05-02T15:25:44.173Z,2.35
2023-05-02T15:27:47.001Z,2.80
2023-05-02T15:29:50.652Z,2.53
2023-05-02T15:31:55.482Z,2.28
2023-05-02T15:33:58.485Z,2.67
2023-05-02T15:36:01.256Z,2.20
2023-05-02T15:38:04.149Z,2.70
2023-05-02T15:40:08.373Z,2.50
2023-05-02T15:42:11.427Z,3.20
2023-05-02T15:44:14.177Z,2.80
2023-05-02T15:46:17.023Z,3.40
2023-05-02T15:48:21.482Z,3.58
2023-05-02T15:52:26.901Z,3.45
2023-05-02T15:54:30.015Z,3.55
2023-05-02T15:56:32.848Z,3.38
2023-05-02T15:58:35.710Z,3.47
2023-05-02T16:00:38.580Z,3.28
2023-05-02T16:02:41.493Z,3.35
2023-05-02T16:04:46.450Z,3.85
2023-05-02T16:06:49.359Z,3.97
2023-05-02T16:08:52.296Z,3.67
2023-05-02T16:10:55.930Z,4.30
2023-05-02T16:12:58.885Z,3.63
2023-05-02T16:15:03.672Z,3.67
2023-05-02T16:17:06.942Z,4.25
2023-05-02T16:19:13.283Z,4.57
2023-05-02T16:21:17.817Z,4.00
2023-05-02T16:25:25.032Z,4.63
2023-05-02T16:27:27.793Z,4.85
2023-05-02T16:29:30.583Z,5.07
2023-05-02T16:31:33.430Z,4.97
2023-05-02T16:33:36.316Z,5.43
2023-05-02T16:35:39.238Z,6.72
2023-05-02T16:37:43.483Z,6.40
2023-05-02T16:39:46.632Z,6.45
2023-05-02T16:41:49.989Z,6.53
2023-05-02T16:43:52.813Z,5.45
2023-05-02T16:46:02.628Z,5.60
2023-05-02T16:48:05.748Z,5.22
2023-05-02T16:50:09.533Z,4.75
2023-05-02T16:52:12.342Z,5.78
2023-05-02T16:54:16.433Z,5.90
2023-05-02T16:56:19.259Z,5.10
2023-05-02T16:58:22.077Z,5.63
2023-05-02T17:00:25.000Z,5.55
2023-05-02T17:02:27.916Z,6.03
2023-05-02T17:04:30.737Z,5.07
2023-05-02T17:06:33.656Z,5.65
2023-05-02T17:08:36.639Z,5.60
2023-05-02T17:10:40.821Z,6.25
2023-05-02T17:12:47.044Z,5.20
2023-05-02T17:14:49.996Z,5.88
2023-05-02T17:16:52.840Z,5.35
2023-05-02T17:18:55.684Z,5.80
2023-05-02T17:20:58.467Z,5.60
2023-05-02T17:23:02.163Z,5.55
2023-05-02T17:25:05.931Z,5.83
2023-05-02T17:27:11.011Z,5.53
2023-05-02T17:29:13.755Z,5.03
2023-05-02T17:31:16.842Z,5.40
2023-05-02T17:33:19.743Z,5.10
2023-05-02T17:35:22.750Z,5.40
2023-05-02T17:37:26.097Z,5.03
2023-05-02T17:39:28.947Z,4.78
2023-05-02T17:41:31.838Z,5.07
2023-05-02T17:43:37.959Z,4.97
2023-05-02T17:45:41.651Z,4.40
2023-05-02T17:47:44.587Z,4.17
2023-05-02T17:49:49.755Z,3.95
2023-05-02T17:51:52.531Z,4.45
2023-05-02T17:53:55.431Z,4.60
2023-05-02T17:55:58.192Z,3.70
2023-05-02T17:58:01.026Z,3.72
2023-05-02T18:00:07.750Z,3.28
2023-05-02T18:02:11.654Z,3.47
2023-05-02T18:04:15.460Z,3.22
2023-05-02T18:06:18.552Z,3.70
2023-05-02T18:08:21.436Z,3.20
2023-05-02T18:10:24.229Z,3.42
2023-05-02T18:12:27.095Z,3.72
2023-05-02T18:14:29.975Z,3.40
2023-05-02T18:16:36.245Z,2.88
2023-05-02T18:18:39.381Z,3.40
2023-05-02T18:20:42.263Z,3.20
2023-05-02T18:22:45.036Z,3.38
2023-05-02T18:24:48.119Z,3.08
2023-05-02T18:26:50.971Z,3.35
2023-05-02T18:28:53.980Z,3.30
2023-05-02T18:30:58.523Z,3.10
2023-05-02T18:33:02.684Z,3.78
2023-05-02T18:35:10.410Z,3.92
2023-05-02T18:37:13.178Z,3.53
2023-05-02T18:39:16.116Z,3.65
2023-05-02T18:41:18.909Z,3.60
2023-05-02T18:43:21.930Z,3.38
2023-05-02T18:45:24.720Z,3.13
2023-05-02T18:47:27.655Z,3.85
2023-05-02T18:49:31.904Z,4.07
2023-05-02T18:51:34.696Z,3.78
2023-05-02T18:53:37.671Z,4.60
2023-05-02T18:55:40.424Z,3.95
2023-05-02T18:57:44.400Z,4.10
2023-05-02T18:59:47.155Z,4.40
2023-05-02T19:01:50.035Z,4.43
2023-05-02T19:03:53.688Z,3.35
2023-05-02T19:05:57.885Z,3.92
2023-05-02T19:08:00.689Z,4.22
2023-05-02T19:10:03.471Z,3.40
2023-05-02T19:12:06.585Z,4.50
2023-05-02T19:14:09.619Z,4.30
2023-05-02T19:16:13.637Z,4.22
2023-05-02T19:18:17.150Z,4.38
2023-05-02T19:20:20.378Z,3.88
2023-05-02T19:22:27.450Z,3.90
2023-05-02T19:24:30.417Z,4.20
2023-05-02T19:26:33.388Z,3.67
2023-05-02T19:28:36.250Z,4.05
2023-05-02T19:30:41.365Z,4.15
2023-05-02T19:32:44.154Z,4.00
2023-05-02T19:34:47.103Z,4.10
2023-05-02T19:36:50.048Z,4.38
2023-05-02T19:38:57.857Z,3.95
2023-05-02T19:41:01.047Z,3.78
2023-05-02T19:43:03.752Z,4.53
2023-05-02T19:45:07.736Z,4.55
2023-05-02T19:47:10.721Z,4.30
2023-05-02T19:49:13.483Z,4.55
2023-05-02T19:51:16.440Z,4.53
2023-05-02T19:53:19.280Z,4.30
2023-05-02T19:55:23.482Z,4.80
2023-05-02T19:57:26.247Z,5.50
2023-05-02T19:59:29.151Z,5.40
2023-05-02T20:01:33.298Z,5.07
2023-05-02T20:03:36.164Z,4.68
2023-05-02T20:05:39.084Z,4.82
2023-05-02T20:07:41.953Z,4.82
2023-05-02T20:09:44.701Z,4.50
2023-05-02T20:11:48.928Z,4.20
2023-05-02T20:13:51.738Z,4.82
2023-05-02T20:15:54.965Z,4.55
2023-05-02T20:17:58.429Z,4.32
2023-05-02T20:20:07.094Z,4.57
2023-05-02T20:22:10.104Z,4.40
2023-05-02T20:24:12.996Z,4.53
2023-05-02T20:26:17.738Z,4.70
2023-05-02T20:30:24.772Z,4.53
2023-05-02T20:32:27.990Z,4.25
2023-05-02T20:34:30.923Z,5.30
2023-05-02T20:36:34.231Z,4.70
2023-05-02T20:38:42.132Z,4.45
2023-05-02T20:40:45.579Z,4.75
2023-05-02T20:42:48.355Z,4.63
2023-05-02T20:44:56.814Z,4.35
2023-05-02T20:46:59.680Z,5.10
2023-05-02T20:49:02.497Z,4.88
2023-05-02T20:51:05.623Z,4.50
2023-05-02T20:53:08.413Z,4.07
2023-05-02T20:55:11.242Z,4.03
2023-05-02T20:57:14.572Z,3.90
2023-05-02T20:59:17.350Z,3.88
2023-05-02T21:01:21.551Z,5.10
2023-05-02T21:03:24.476Z,5.80
2023-05-02T21:05:27.393Z,5.60
2023-05-02T21:07:30.500Z,4.80
2023-05-02T21:09:33.377Z,5.20
2023-05-02T21:11:36.241Z,4.60
2023-05-02T21:13:38.983Z,4.07
2023-05-02T21:15:41.828Z,4.90
2023-05-02T21:17:46.024Z,4.97
2023-05-02T21:19:49.171Z,4.93
2023-05-02T21:21:51.975Z,4.65
2023-05-02T21:23:54.723Z,4.93
2023-05-02T21:25:57.638Z,4.68
2023-05-02T21:28:00.462Z,4.28
2023-05-02T21:30:03.573Z,4.53
2023-05-02T21:32:06.864Z,4.07
2023-05-02T21:34:11.111Z,4.47
2023-05-02T21:36:13.894Z,4.60
2023-05-02T21:38:17.297Z,4.80
2023-05-02T21:40:20.368Z,4.20
2023-05-02T21:42:23.161Z,4.47
2023-05-02T21:44:25.977Z,4.85
2023-05-02T21:46:28.909Z,4.65
2023-05-02T21:48:31.786Z,5.88
2023-05-02T21:50:36.226Z,4.70
2023-05-02T21:52:39.421Z,4.30
2023-05-02T21:54:42.633Z,5.18
2023-05-02T21:56:45.341Z,4.60
2023-05-02T21:58:49.646Z,4.68
2023-05-02T22:00:52.476Z,4.68
2023-05-02T22:02:55.430Z,5.25
2023-05-02T22:04:58.751Z,5.10
2023-05-02T22:07:02.896Z,5.32
2023-05-02T22:09:05.991Z,4.57
2023-05-02T22:11:09.062Z,5.65
2023-05-02T22:13:13.191Z,5.03
2023-05-02T22:15:15.975Z,5.47
2023-05-02T22:17:19.569Z,5.40
2023-05-02T22:19:22.579Z,4.85
2023-05-02T22:21:25.315Z,5.25
2023-05-02T22:23:30.935Z,4.95
2023-05-02T22:25:35.722Z,5.38
2023-05-02T22:29:41.217Z,4.10
2023-05-02T22:31:44.072Z,5.03
2023-05-02T22:33:49.858Z,5.35
2023-05-02T22:35:52.701Z,4.93
2023-05-02T22:37:55.690Z,4.88
2023-05-02T22:40:00.037Z,5.45
2023-05-02T22:42:03.190Z,5.63
2023-05-02T22:44:06.692Z,5.05
2023-05-02T22:46:09.579Z,5.97
2023-05-02T22:48:12.463Z,5.75
2023-05-02T22:50:15.852Z,6.30
2023-05-02T22:52:20.629Z,5.95
2023-05-02T22:54:24.975Z,6.72
2023-05-02T22:56:29.183Z,5.22
2023-05-02T22:58:31.941Z,6.40
2023-05-02T23:00:34.788Z,5.80
2023-05-02T23:02:37.840Z,5.25
2023-05-02T23:04:40.759Z,4.85
2023-05-02T23:06:43.953Z,5.28
2023-05-02T23:08:46.737Z,5.68
2023-05-02T23:10:49.484Z,5.72
2023-05-02T23:12:53.652Z,5.40
2023-05-02T23:15:11.038Z,5.97
2023-05-02T23:17:13.902Z,6.20
2023-05-02T23:19:17.109Z,5.72
2023-05-02T23:21:19.930Z,5.60
2023-05-02T23:23:22.969Z,5.43
2023-05-02T23:25:27.990Z,5.68
2023-05-02T23:27:30.914Z,5.57
2023-05-02T23:29:35.124Z,5.63
2023-05-02T23:31:38.106Z,6.22
2023-05-02T23:33:41.216Z,5.57
2023-05-02T23:35:44.121Z,6.00
2023-05-02T23:37:46.911Z,6.10
2023-05-02T23:39:50.160Z,6.45
2023-05-02T23:41:52.917Z,6.00
2023-05-02T23:43:55.727Z,5.78
2023-05-02T23:45:59.876Z,6.80
2023-05-02T23:48:02.768Z,7.00
2023-05-02T23:50:06.203Z,6.45
2023-05-02T23:52:09.365Z,6.75
2023-05-02T23:54:12.605Z,6.75
2023-05-02T23:56:15.451Z,6.63
2023-05-02T23:58:18.350Z,6.97
